Relevés horaires Jungfraujoch (Suisse)


Relevés horaires à Jungfraujoch - Dimanche 31 Juill. 2011
Heure UTC1 Température [°C] Vent [km/h] Hum. [%] Pres.4 [hPa] Visi. [Km] Nébu. [octa] Préc.5 [mm] Cond.
2m. Res. Ros. Dir.2 Vit. Moy. Raf.3
23:00 -1.2 -5 -3.5 SE 11.1 11.1 13.0 84 700(0.0/3h) -- -- -- --
22:00 -1.1 -3.1 -2.1 E 5.6 16.7 20.4 93 700(0.3/3h) -- -- -- --
21:00 -1.2 -6.2 -1.6 SE 16.7 16.7 20.4 97 700(0.4/3h) -- -- -- --
20:00 -0.3 -4.4 -2.7 ESE 13.0 14.8 16.7 84 700(0.4/3h) -- -- -- --
19:00 0.1 -3 -1.8 SE 9.3 11.1 14.8 87 700(0.1/3h) -- -- -- --
18:00 4.6 2.8 -1.7 S 7.4 9.3 13.0 64 700(0.0/3h) >70 1/8 -- --
17:00 1.4 1.4 -1.6 NO 3.7 7.4 13.0 80 700(0.0/3h) -- -- -- --
16:00 2.4 2.4 -2.1 NNO 1.9 7.4 13.0 72 700(0.1/3h) -- -- -- --
15:00 3.5 3.5 -3.0 NNO 1.9 9.3 13.0 62 700(0.2/3h) >70 1/8 -- --
14:00 4.5 4.5 -8.1 NNO 0.0 3.7 9.3 39 700(0.4/3h) -- -- -- --
13:00 3.6 2.3 -6.5 SSE 5.6 9.3 13.0 48 700(0.5/3h) -- -- -- --
12:00 3.2 3.2 -9.5 SSE 3.7 9.3 13.0 39 700(0.7/3h) >70 3/8 -- --
11:00 0.8 0.8 -18.3 NNO 0.0 3.7 5.6 22 700(0.7/3h) -- -- -- --
10:00 0.8 0.8 -17.2 NNO 0.0 7.4 9.3 24 700(0.7/3h) -- -- -- --
09:00 0.8 0.8 -17.1 NNO 0.0 9.3 13.0 25 700(0.6/3h) >70 1/8 -- --
08:00 -0.1 -0.1 -18.3 NNO 0.0 0.0 3.7 24 700(0.6/3h) -- -- -- --
07:00 -0.7 -2.7 -18.9 NNO 5.6 9.3 13.0 24 700(0.3/3h) -- -- -- --
06:00 -0.9 -0.9 -18.1 NNO 3.7 22.2 27.8 26 700(0.0/3h) >70 1/8 -- Etat du ciel inchangé
05:00 -2.3 -6.8 -15.2 NNO 13.0 14.8 18.5 36 700(-0.3/3h) -- -- -- --
04:00 -2.8 -7.8 -14.6 NNO 14.8 16.7 20.4 40 700(-0.5/3h) -- -- -- --
03:00 -3.0 -8.8 -13.6 NNO 18.5 22.2 27.8 44 700(-0.7/3h) -- -- -- --
02:00 -3.3 -9.5 -10.5 NNO 20.4 22.2 27.8 57 700(-0.8/3h) -- -- -- --
01:00 -3.5 -9.4 -10.7 NNO 18.5 22.2 24.1 57 700(-0.8/3h) -- -- -- --
00:00 -3.5 -10.3 -11.6 NO 24.1 25.9 37.0 53 700(-0.5/3h) -- -- -- --

1 Coordinated Universal Time. Actuellement il est 15:00 locale et 13:00 UTC.

2 Le vent souffle depuis la direction indiquée vers la direction oposée.

3 Les rafales max. sont disponible 40 min après l'heure du relevé.

4 Pour les stations d'altitude (plus de 600m) le géopotentiel du niveau le plus proche de la pression obligatoire est indiqué.

5 Les stations disposant d'un diffuseur peuvent indiquer "trace". Cela signifie que des précipitations ont touchés le sol mais que la quantité est inférieure à 0.1 mm.

Copyright

Les données affichées sur cette page sont la propriété exclusive de Météo Suisse.

Récapitulatif de la journée
Température [°C] Vent [km/h] Ensoleillement4 [h] Precipitations totale5 [mm] Pression [Hpa]
Min1 Max.2 Moy.3 Max. Min Max.
-4.4 5.4 12.6 37.0 11 h 42 min 0 700.0 700.0

1 Température minimale relevée entre 18:00 UTC la veille et 18:00 UTC le jour donné.

2 Température maximale relevée entre 06:00 UTC le jour donné et 06:00 UTC le lendemain.

3 Vent moyen de la journée basé sur les relevés horaires.

4 Ensoleillement en heures relevé entre 06:00 UTC la veille et 06:00 UTC le jour donné.

5 Précipitations totales tombées entre 06:00 UTC la jour donné et 06:00 UTC le lendemain.

Graphiques horaires